createdAt,value
2022-08-09T00:01:15.556Z,24.80
2022-08-09T00:04:10.568Z,24.30
2022-08-09T00:07:10.827Z,24.80
2022-08-09T00:09:57.087Z,24.30
2022-08-09T00:12:43.334Z,25.30
2022-08-09T00:15:57.453Z,24.20
2022-08-09T00:18:38.622Z,24.50
2022-08-09T00:21:24.719Z,24.70
2022-08-09T00:24:11.060Z,24.20
2022-08-09T00:27:01.863Z,24.40
2022-08-09T00:30:23.609Z,24.50
2022-08-09T00:32:54.684Z,24.50
2022-08-09T00:35:42.786Z,24.70
2022-08-09T00:38:29.326Z,24.40
2022-08-09T00:44:14.580Z,24.10
2022-08-09T00:44:27.192Z,24.10
2022-08-09T00:47:15.693Z,24.70
2022-08-09T00:50:01.771Z,23.90
2022-08-09T00:52:47.404Z,24.00
2022-08-09T00:56:05.708Z,23.90
2022-08-09T00:58:41.597Z,23.70
2022-08-09T01:01:44.818Z,23.80
2022-08-09T01:04:34.021Z,23.60
2022-08-09T01:07:37.670Z,23.60
2022-08-09T01:11:08.386Z,23.80
2022-08-09T01:14:08.136Z,23.70
2022-08-09T01:17:19.326Z,23.50
2022-08-09T01:20:21.771Z,23.80
2022-08-09T01:24:01.869Z,22.90
2022-08-09T01:27:08.864Z,24.70
2022-08-09T01:30:04.588Z,23.70
2022-08-09T01:32:52.477Z,24.00
2022-08-09T01:36:03.208Z,23.90
2022-08-09T01:38:51.626Z,23.50
2022-08-09T01:42:01.276Z,23.60
2022-08-09T01:44:48.654Z,23.50
2022-08-09T01:50:36.594Z,23.70
2022-08-09T01:53:23.888Z,23.70
2022-08-09T01:56:15.848Z,23.60
2022-08-09T01:59:07.763Z,23.60
2022-08-09T02:01:59.259Z,23.60
2022-08-09T02:08:39.436Z,23.60
2022-08-09T02:10:51.554Z,23.60
2022-08-09T02:13:40.393Z,23.00
2022-08-09T02:16:33.949Z,23.60
2022-08-09T02:19:39.166Z,23.50
2022-08-09T02:22:38.150Z,23.40
2022-08-09T02:25:28.034Z,23.30
2022-08-09T02:28:18.896Z,23.40
2022-08-09T02:31:26.112Z,23.40
2022-08-09T02:34:40.820Z,23.40
2022-08-09T02:37:31.433Z,23.40
2022-08-09T02:40:26.804Z,23.50
2022-08-09T02:43:18.599Z,23.50
2022-08-09T02:46:10.554Z,23.00
2022-08-09T02:49:05.109Z,22.90
2022-08-09T02:51:57.061Z,23.40
2022-08-09T02:54:53.870Z,23.40
2022-08-09T02:57:59.749Z,23.80
2022-08-09T03:00:58.155Z,23.30
2022-08-09T03:04:17.449Z,23.30
2022-08-09T03:06:53.062Z,23.70
2022-08-09T03:09:42.959Z,23.20
2022-08-09T03:12:29.853Z,23.30
2022-08-09T03:15:16.437Z,23.20
2022-08-09T03:18:03.613Z,23.20
2022-08-09T03:20:57.569Z,23.30
2022-08-09T03:24:04.389Z,23.20
2022-08-09T03:26:51.800Z,23.40
2022-08-09T03:29:43.161Z,23.40
2022-08-09T03:32:45.720Z,22.60
2022-08-09T03:36:11.584Z,23.50
2022-08-09T03:38:41.881Z,23.20
2022-08-09T03:41:30.123Z,23.40
2022-08-09T03:44:32.077Z,23.30
2022-08-09T03:47:17.593Z,23.20
2022-08-09T03:50:06.248Z,23.30
2022-08-09T03:52:56.167Z,23.40
2022-08-09T03:55:44.133Z,23.30
2022-08-09T03:58:30.760Z,23.20
2022-08-09T04:01:17.248Z,23.30
2022-08-09T04:07:00.766Z,23.30
2022-08-09T04:09:50.152Z,23.70
2022-08-09T04:12:53.623Z,23.00
2022-08-09T04:21:38.537Z,23.00
2022-08-09T04:27:13.401Z,23.00
2022-08-09T04:30:00.323Z,24.10
2022-08-09T04:32:48.401Z,23.10
2022-08-09T04:35:34.458Z,22.80
2022-08-09T04:38:20.904Z,22.80
2022-08-09T04:41:09.803Z,23.50
2022-08-09T04:44:07.349Z,23.10
2022-08-09T04:47:05.997Z,23.10
2022-08-09T04:49:55.682Z,23.20
2022-08-09T04:52:42.157Z,23.40
2022-08-09T04:55:28.396Z,23.10
2022-08-09T04:58:29.849Z,23.20
2022-08-09T05:01:18.762Z,23.00
2022-08-09T05:04:04.704Z,24.00
2022-08-09T05:12:33.023Z,24.00
2022-08-09T05:15:24.571Z,23.40
2022-08-09T05:27:19.337Z,23.80
2022-08-09T05:30:06.153Z,24.10
2022-08-09T05:38:39.274Z,25.40
2022-08-09T05:41:24.913Z,25.10
2022-08-09T05:44:11.103Z,25.70
2022-08-09T05:46:57.132Z,25.40
2022-08-09T05:55:39.575Z,26.70
2022-08-09T05:58:25.527Z,26.10
2022-08-09T06:01:15.948Z,26.30
2022-08-09T06:06:51.945Z,26.70
2022-08-09T06:09:55.233Z,26.10
2022-08-09T06:12:43.495Z,26.20
2022-08-09T06:15:29.350Z,26.10
2022-08-09T06:18:17.547Z,25.90
2022-08-09T06:21:04.553Z,25.00
2022-08-09T06:23:57.962Z,25.80
2022-08-09T06:29:33.793Z,25.60
2022-08-09T06:33:13.539Z,25.70
2022-08-09T06:35:57.201Z,26.70
2022-08-09T06:38:50.294Z,26.70
2022-08-09T06:47:39.933Z,27.30
2022-08-09T06:50:28.220Z,27.40
2022-08-09T06:53:17.857Z,28.20
2022-08-09T06:56:07.389Z,28.00
2022-08-09T07:02:04.371Z,28.10
2022-08-09T07:16:41.447Z,29.20
2022-08-09T07:19:35.017Z,29.20
2022-08-09T07:25:21.826Z,29.60
2022-08-09T07:36:41.754Z,29.00
2022-08-09T07:48:30.801Z,29.10
2022-08-09T07:52:05.714Z,27.90
2022-08-09T07:54:27.999Z,29.30
2022-08-09T08:02:59.268Z,29.20
2022-08-09T08:12:10.049Z,29.40
2022-08-09T08:14:55.009Z,29.40
2022-08-09T08:26:26.208Z,29.90
2022-08-09T08:29:13.046Z,30.00
2022-08-09T08:32:03.705Z,30.50
2022-08-09T08:34:51.812Z,31.00
2022-08-09T08:37:41.483Z,30.90
2022-08-09T08:40:43.771Z,31.40
2022-08-09T08:43:36.221Z,31.00
2022-08-09T08:46:33.666Z,31.40
2022-08-09T08:49:38.662Z,30.90
2022-08-09T08:52:57.509Z,30.70
2022-08-09T08:55:41.729Z,30.70
2022-08-09T08:58:29.958Z,30.50
2022-08-09T09:01:20.826Z,30.10
2022-08-09T09:04:12.506Z,29.60
2022-08-09T09:07:03.135Z,30.50
2022-08-09T09:09:59.549Z,30.00
2022-08-09T09:12:49.874Z,31.10
2022-08-09T09:15:38.626Z,30.50
2022-08-09T09:21:16.150Z,28.40
2022-08-09T09:24:20.531Z,29.60
2022-08-09T09:27:22.101Z,29.30
2022-08-09T09:30:31.525Z,29.20
2022-08-09T09:36:20.174Z,29.30
2022-08-09T09:39:09.820Z,29.40
2022-08-09T09:41:57.254Z,29.40
2022-08-09T09:44:43.241Z,29.80
2022-08-09T09:47:32.477Z,30.70
2022-08-09T09:50:22.877Z,30.40
2022-08-09T09:53:18.185Z,29.50
2022-08-09T09:58:53.509Z,29.90
2022-08-09T10:01:43.065Z,30.00
2022-08-09T10:07:26.283Z,29.70
2022-08-09T10:16:55.091Z,29.70
2022-08-09T10:18:59.886Z,30.20
2022-08-09T10:21:50.297Z,29.60
2022-08-09T10:24:36.683Z,29.50
2022-08-09T10:27:26.153Z,30.00
2022-08-09T10:34:05.235Z,30.60
2022-08-09T10:39:23.384Z,29.90
2022-08-09T10:42:16.028Z,30.20
2022-08-09T10:45:12.083Z,30.10
2022-08-09T10:48:26.428Z,30.20
2022-08-09T10:51:48.018Z,29.40
2022-08-09T10:54:38.982Z,29.90
2022-08-09T10:57:37.519Z,29.80
2022-08-09T11:00:29.639Z,29.70
2022-08-09T11:03:49.932Z,29.90
2022-08-09T11:09:19.443Z,30.10
2022-08-09T11:12:26.652Z,30.20
2022-08-09T11:15:19.123Z,30.90
2022-08-09T11:18:04.943Z,30.80
2022-08-09T11:20:53.103Z,29.40
2022-08-09T11:24:01.681Z,30.50
2022-08-09T11:26:54.828Z,30.70
2022-08-09T11:30:05.865Z,29.60
2022-08-09T11:33:08.045Z,30.80
2022-08-09T11:36:01.504Z,30.80
2022-08-09T11:39:01.371Z,31.60
2022-08-09T11:41:47.202Z,31.00
2022-08-09T11:44:46.041Z,31.00
2022-08-09T11:47:53.705Z,30.50
2022-08-09T11:52:54.012Z,30.40
2022-08-09T11:54:27.453Z,30.60
2022-08-09T11:57:56.392Z,30.80
2022-08-09T12:01:03.501Z,31.20
2022-08-09T12:04:00.287Z,30.60
2022-08-09T12:06:56.274Z,30.60
2022-08-09T12:09:50.494Z,30.40
2022-08-09T12:12:47.897Z,30.80
2022-08-09T12:18:42.423Z,31.00
2022-08-09T12:24:25.658Z,30.60
2022-08-09T12:28:58.299Z,31.20
2022-08-09T12:30:39.164Z,31.00
2022-08-09T12:33:35.373Z,31.60
2022-08-09T12:39:22.367Z,32.00
2022-08-09T12:42:10.468Z,31.00
2022-08-09T12:45:07.145Z,31.00
2022-08-09T12:48:27.810Z,31.00
2022-08-09T12:51:52.225Z,31.10
2022-08-09T12:54:24.800Z,30.60
2022-08-09T12:57:12.058Z,31.40
2022-08-09T13:00:16.572Z,31.30
2022-08-09T13:03:04.900Z,31.20
2022-08-09T13:06:14.324Z,31.90
2022-08-09T13:09:06.809Z,32.00
2022-08-09T13:12:01.627Z,31.20
2022-08-09T13:14:53.850Z,31.10
2022-08-09T13:17:58.669Z,31.90
2022-08-09T13:24:42.110Z,31.20
2022-08-09T13:27:23.762Z,30.80
2022-08-09T13:30:50.597Z,30.80
2022-08-09T13:33:52.174Z,30.50
2022-08-09T13:36:42.152Z,31.20
2022-08-09T13:41:19.029Z,31.20
2022-08-09T13:42:36.431Z,31.70
2022-08-09T13:46:07.387Z,30.60
2022-08-09T13:51:16.199Z,31.60
2022-08-09T13:54:01.877Z,31.80
2022-08-09T13:59:37.088Z,31.60
2022-08-09T14:02:27.814Z,31.70
2022-08-09T14:05:57.175Z,31.30
2022-08-09T14:08:19.428Z,31.30
2022-08-09T14:11:09.967Z,31.10
2022-08-09T14:17:09.141Z,30.80
2022-08-09T14:19:58.630Z,31.20
2022-08-09T14:25:31.426Z,30.30
2022-08-09T14:28:30.180Z,31.50
2022-08-09T14:31:16.985Z,30.90
2022-08-09T14:34:04.288Z,31.40
2022-08-09T14:39:47.764Z,30.70
2022-08-09T14:42:34.618Z,31.10
2022-08-09T14:51:14.186Z,31.50
2022-08-09T14:54:01.187Z,31.10
2022-08-09T14:56:57.426Z,31.80
2022-08-09T14:59:48.472Z,31.60
2022-08-09T15:02:34.878Z,31.30
2022-08-09T15:05:20.977Z,31.70
2022-08-09T15:08:10.392Z,30.80
2022-08-09T15:11:00.328Z,30.70
2022-08-09T15:13:48.155Z,31.70
2022-08-09T15:16:43.040Z,31.50
2022-08-09T15:19:35.991Z,32.00
2022-08-09T15:22:22.095Z,31.10
2022-08-09T15:25:11.753Z,30.80
2022-08-09T15:28:01.482Z,31.50
2022-08-09T15:30:56.021Z,31.20
2022-08-09T15:34:27.490Z,32.10
2022-08-09T15:36:56.084Z,31.60
2022-08-09T15:42:42.695Z,31.80
2022-08-09T15:45:29.873Z,31.80
2022-08-09T15:48:29.285Z,31.10
2022-08-09T15:51:44.647Z,31.50
2022-08-09T15:54:33.465Z,31.30
2022-08-09T15:57:35.532Z,31.50
2022-08-09T16:00:32.333Z,30.90
2022-08-09T16:09:51.585Z,31.00
2022-08-09T16:12:31.038Z,31.20
2022-08-09T16:18:24.151Z,31.30
2022-08-09T16:21:11.537Z,31.00
2022-08-09T16:24:02.450Z,31.30
2022-08-09T16:26:49.025Z,30.00
2022-08-09T16:29:37.605Z,31.00
2022-08-09T16:32:55.660Z,31.10
2022-08-09T16:35:57.506Z,30.90
2022-08-09T16:38:51.419Z,31.30
2022-08-09T16:44:46.845Z,31.30
2022-08-09T16:48:39.963Z,31.60
2022-08-09T16:50:58.903Z,30.90
2022-08-09T16:54:16.454Z,30.60
2022-08-09T17:05:19.825Z,31.20
2022-08-09T17:08:43.015Z,30.40
2022-08-09T17:11:12.529Z,30.80
2022-08-09T17:14:02.302Z,30.80
2022-08-09T17:16:48.410Z,31.20
2022-08-09T17:19:47.423Z,30.40
2022-08-09T17:22:49.854Z,30.50
2022-08-09T17:25:38.550Z,30.40
2022-08-09T17:31:15.968Z,30.50
2022-08-09T17:34:02.759Z,30.30
2022-08-09T17:36:53.337Z,30.30
2022-08-09T17:39:52.125Z,30.30
2022-08-09T17:45:42.065Z,29.60
2022-08-09T17:48:52.198Z,29.90
2022-08-09T17:54:32.228Z,29.90
2022-08-09T18:00:33.557Z,29.60
2022-08-09T18:03:35.547Z,29.70
2022-08-09T18:21:19.090Z,29.20
2022-08-09T18:27:01.465Z,29.10
2022-08-09T18:35:58.650Z,29.10
2022-08-09T18:41:42.328Z,29.00
2022-08-09T18:53:22.391Z,28.70
2022-08-09T18:58:57.091Z,28.80
2022-08-09T19:01:46.313Z,28.60
2022-08-09T19:04:34.959Z,28.60
2022-08-09T19:13:20.979Z,28.80
2022-08-09T19:19:21.493Z,29.10
2022-08-09T19:22:15.234Z,28.70
2022-08-09T19:25:42.507Z,28.30
2022-08-09T19:28:15.584Z,28.40
2022-08-09T19:33:58.220Z,27.60
2022-08-09T19:36:43.968Z,27.90
2022-08-09T19:39:43.012Z,28.20
2022-08-09T19:45:24.992Z,28.00
2022-08-09T19:54:25.115Z,27.50
2022-08-09T19:57:11.345Z,27.40
2022-08-09T20:00:07.032Z,27.40
2022-08-09T20:04:17.768Z,27.30
2022-08-09T20:06:04.096Z,27.30
2022-08-09T20:08:56.840Z,27.30
2022-08-09T20:11:51.794Z,27.10
2022-08-09T20:14:43.836Z,26.90
2022-08-09T20:17:41.526Z,26.90
2022-08-09T20:20:37.698Z,27.00
2022-08-09T20:23:23.904Z,26.90
2022-08-09T20:26:13.280Z,26.80
2022-08-09T20:29:01.035Z,26.80
2022-08-09T20:38:21.049Z,26.10
2022-08-09T20:43:44.882Z,26.40
2022-08-09T20:46:43.302Z,26.20
2022-08-09T20:49:31.429Z,26.40
2022-08-09T20:55:11.514Z,26.90
2022-08-09T20:58:08.202Z,26.10
2022-08-09T21:01:33.023Z,26.60
2022-08-09T21:05:53.958Z,26.80
2022-08-09T21:13:02.451Z,25.50
2022-08-09T21:20:04.350Z,25.80
2022-08-09T21:27:51.043Z,26.50
2022-08-09T21:30:51.540Z,25.20
2022-08-09T21:33:37.881Z,25.30
2022-08-09T21:36:28.054Z,25.60
2022-08-09T21:39:21.865Z,25.30
2022-08-09T21:44:56.820Z,25.40
2022-08-09T21:47:44.798Z,25.40
2022-08-09T21:50:38.856Z,25.30
2022-08-09T21:59:42.879Z,25.40
2022-08-09T22:02:36.140Z,25.60
2022-08-09T22:05:23.750Z,25.30
2022-08-09T22:08:25.524Z,25.30
2022-08-09T22:12:09.222Z,25.20
2022-08-09T22:14:16.349Z,24.50
2022-08-09T22:17:04.555Z,25.40
2022-08-09T22:19:58.762Z,25.00
2022-08-09T22:26:06.159Z,25.00
2022-08-09T22:28:43.616Z,25.00
2022-08-09T22:37:28.166Z,25.10
2022-08-09T22:40:21.476Z,24.80
2022-08-09T22:48:11.845Z,24.80
2022-08-09T22:49:17.893Z,24.90
2022-08-09T22:52:04.130Z,24.60
2022-08-09T22:54:50.473Z,24.90
2022-08-09T22:57:36.709Z,24.60
2022-08-09T23:04:02.789Z,24.60
2022-08-09T23:06:52.956Z,24.70
2022-08-09T23:09:39.794Z,24.60
2022-08-09T23:12:25.435Z,25.10
2022-08-09T23:15:11.536Z,24.60
2022-08-09T23:20:45.704Z,24.60
2022-08-09T23:23:31.569Z,24.60
2022-08-09T23:26:17.354Z,24.50
2022-08-09T23:29:04.952Z,24.50
2022-08-09T23:31:54.341Z,24.40
2022-08-09T23:34:40.106Z,24.30
2022-08-09T23:37:25.956Z,24.50
2022-08-09T23:40:12.255Z,24.40
2022-08-09T23:42:58.314Z,24.30
2022-08-09T23:45:44.183Z,24.20
2022-08-09T23:48:29.779Z,24.30
2022-08-09T23:51:15.340Z,24.40
2022-08-09T23:54:02.971Z,24.30
2022-08-09T23:56:54.683Z,24.20
